createdAt,value
2023-03-16T00:02:01.546Z,58.81
2023-03-16T00:04:47.573Z,59.48
2023-03-16T00:07:30.694Z,59.72
2023-03-16T00:10:10.840Z,59.27
2023-03-16T00:12:54.649Z,60.21
2023-03-16T00:15:35.474Z,60.39
2023-03-16T00:18:21.597Z,60.21
2023-03-16T00:21:02.833Z,60.69
2023-03-16T00:23:42.354Z,60.71
2023-03-16T00:26:23.186Z,60.49
2023-03-16T00:29:08.770Z,60.99
2023-03-16T00:31:52.482Z,61.18
2023-03-16T00:34:30.191Z,61.60
2023-03-16T00:37:18.685Z,61.54
2023-03-16T00:39:59.891Z,61.55
2023-03-16T00:42:44.648Z,62.13
2023-03-16T00:45:23.726Z,62.36
2023-03-16T00:48:09.757Z,62.54
2023-03-16T00:50:50.843Z,63.24
2023-03-16T00:53:30.456Z,63.83
2023-03-16T00:56:17.711Z,64.54
2023-03-16T00:59:05.911Z,64.87
2023-03-16T01:01:47.001Z,65.06
2023-03-16T01:04:32.702Z,65.52
2023-03-16T01:07:16.579Z,67.75
2023-03-16T01:10:02.946Z,70.22
2023-03-16T01:12:46.214Z,71.49
2023-03-16T01:15:27.376Z,72.17
2023-03-16T01:18:07.601Z,74.05
2023-03-16T01:20:50.592Z,75.75
2023-03-16T01:23:36.812Z,78.83
2023-03-16T01:26:12.898Z,80.07
2023-03-16T01:28:53.738Z,80.73
2023-03-16T01:31:39.685Z,81.29
2023-03-16T01:34:31.895Z,82.76
2023-03-16T01:37:12.677Z,82.73
2023-03-16T01:40:07.958Z,84.19
2023-03-16T01:43:02.526Z,83.12
2023-03-16T01:46:02.596Z,79.55
2023-03-16T01:48:57.711Z,79.29
2023-03-16T01:51:59.238Z,79.18
2023-03-16T01:54:51.334Z,78.15
2023-03-16T01:57:39.643Z,78.03
2023-03-16T02:00:24.020Z,78.25
2023-03-16T02:03:25.681Z,77.69
2023-03-16T02:06:23.356Z,77.76
2023-03-16T02:09:04.319Z,77.83
2023-03-16T02:11:44.780Z,78.08
2023-03-16T02:14:28.506Z,77.93
2023-03-16T02:17:14.495Z,79.83
2023-03-16T02:20:13.693Z,81.39
2023-03-16T02:22:57.473Z,82.58
2023-03-16T02:25:54.425Z,81.94
2023-03-16T02:28:48.745Z,82.32
2023-03-16T02:31:27.746Z,83.69
2023-03-16T02:34:11.471Z,83.87
2023-03-16T02:36:57.729Z,85.43
2023-03-16T02:39:36.834Z,84.92
2023-03-16T02:42:19.003Z,84.57
2023-03-16T02:45:06.307Z,85.83
2023-03-16T02:47:47.894Z,84.48
2023-03-16T02:50:47.701Z,86.17
2023-03-16T02:53:32.456Z,87.34
2023-03-16T02:56:09.576Z,86.44
2023-03-16T02:58:57.396Z,86.86
2023-03-16T03:01:35.086Z,87.93
2023-03-16T03:04:23.551Z,89.67
2023-03-16T03:07:05.034Z,88.57
2023-03-16T03:10:04.318Z,90.34
2023-03-16T03:12:51.164Z,89.51
2023-03-16T03:15:30.910Z,89.13
2023-03-16T03:18:17.577Z,88.43
2023-03-16T03:20:55.454Z,88.47
2023-03-16T03:23:42.309Z,88.01
2023-03-16T03:26:21.345Z,88.12
2023-03-16T03:29:04.938Z,88.91
2023-03-16T03:31:48.434Z,88.67
2023-03-16T03:34:26.712Z,87.82
2023-03-16T03:37:04.384Z,88.23
2023-03-16T03:39:46.312Z,88.36
2023-03-16T03:42:29.503Z,87.72
2023-03-16T03:45:14.169Z,87.22
2023-03-16T03:47:57.630Z,87.14
2023-03-16T03:50:38.874Z,87.27
2023-03-16T03:53:35.311Z,87.87
2023-03-16T03:56:27.394Z,88.19
2023-03-16T03:59:08.209Z,88.57
2023-03-16T04:02:12.874Z,89.04
2023-03-16T04:04:58.084Z,90.57
2023-03-16T04:07:41.162Z,90.64
2023-03-16T04:10:31.225Z,90.72
2023-03-16T04:13:15.886Z,90.34
2023-03-16T04:16:01.939Z,91.25
2023-03-16T04:18:50.614Z,91.47
2023-03-16T04:21:35.580Z,91.71
2023-03-16T04:24:23.658Z,92.07
2023-03-16T04:27:08.572Z,92.81
2023-03-16T04:30:01.593Z,93.78
2023-03-16T04:32:36.804Z,94.70
2023-03-16T04:35:13.348Z,94.94
2023-03-16T04:38:12.201Z,96.22
2023-03-16T04:41:06.258Z,97.08
2023-03-16T04:43:53.736Z,98.03
2023-03-16T04:46:36.057Z,98.11
2023-03-16T04:49:22.020Z,99.18
2023-03-16T04:52:05.774Z,100.00
2023-03-16T04:54:50.450Z,100.00
2023-03-16T04:57:39.474Z,100.00
2023-03-16T05:00:25.296Z,100.00
2023-03-16T05:03:22.941Z,100.00
2023-03-16T05:06:09.590Z,100.00
2023-03-16T05:09:08.281Z,100.00
2023-03-16T05:11:45.992Z,100.00
2023-03-16T05:14:30.263Z,100.00
2023-03-16T05:17:22.306Z,100.00
2023-03-16T05:20:15.862Z,100.00
2023-03-16T05:23:03.386Z,100.00
2023-03-16T05:25:49.385Z,100.00
2023-03-16T05:28:32.545Z,100.00
2023-03-16T05:31:19.151Z,100.00
2023-03-16T05:34:04.916Z,100.00
2023-03-16T05:36:46.383Z,100.00
2023-03-16T05:39:28.849Z,100.00
2023-03-16T05:42:10.281Z,100.00
2023-03-16T05:45:11.528Z,100.00
2023-03-16T05:48:11.523Z,100.00
2023-03-16T05:51:09.600Z,100.00
2023-03-16T05:53:51.128Z,100.00
2023-03-16T05:56:49.275Z,100.00
2023-03-16T05:59:39.699Z,100.00
2023-03-16T06:02:23.621Z,100.00
2023-03-16T06:05:18.965Z,100.00
2023-03-16T06:08:03.694Z,100.00
2023-03-16T06:11:07.937Z,100.00
2023-03-16T06:13:46.464Z,100.00
2023-03-16T06:16:39.602Z,99.61
2023-03-16T06:19:23.776Z,96.14
2023-03-16T06:22:14.973Z,95.00
2023-03-16T06:24:54.273Z,89.56
2023-03-16T06:27:34.722Z,87.09
2023-03-16T06:30:32.566Z,84.68
2023-03-16T06:33:15.964Z,82.13
2023-03-16T06:36:03.981Z,76.00
2023-03-16T06:38:55.594Z,75.16
2023-03-16T06:41:38.801Z,68.43
2023-03-16T06:44:21.708Z,66.80
2023-03-16T06:47:29.377Z,65.84
2023-03-16T06:50:09.459Z,64.20
2023-03-16T06:53:00.229Z,66.61
2023-03-16T06:55:51.500Z,62.94
2023-03-16T06:58:35.038Z,58.53
2023-03-16T07:01:20.268Z,58.85
2023-03-16T07:03:58.612Z,58.04
2023-03-16T07:06:48.940Z,57.08
2023-03-16T07:09:27.957Z,57.86
2023-03-16T07:12:10.694Z,55.83
2023-03-16T07:15:00.013Z,55.48
2023-03-16T07:17:51.638Z,54.05
2023-03-16T07:20:32.272Z,53.72
2023-03-16T07:23:13.490Z,53.47
2023-03-16T07:25:54.856Z,53.91
2023-03-16T07:28:33.164Z,52.74
2023-03-16T07:31:25.347Z,53.18
2023-03-16T07:34:09.842Z,51.64
2023-03-16T07:36:52.840Z,51.21
2023-03-16T07:39:46.768Z,50.97
2023-03-16T07:42:35.651Z,50.45
2023-03-16T07:45:34.458Z,49.61
2023-03-16T07:48:25.339Z,49.11
2023-03-16T07:51:05.015Z,49.94
2023-03-16T07:53:47.344Z,49.41
2023-03-16T07:56:49.365Z,48.03
2023-03-16T07:59:53.814Z,47.30
2023-03-16T08:02:35.280Z,49.00
2023-03-16T08:05:15.535Z,48.43
2023-03-16T08:07:58.551Z,48.64
2023-03-16T08:10:44.207Z,47.22
2023-03-16T08:13:38.412Z,47.12
2023-03-16T08:16:22.348Z,46.12
2023-03-16T08:19:05.515Z,46.19
2023-03-16T08:22:01.258Z,45.20
2023-03-16T08:24:46.839Z,44.57
2023-03-16T08:27:27.525Z,44.58
2023-03-16T08:30:12.025Z,44.10
2023-03-16T08:33:04.601Z,42.60
2023-03-16T08:35:50.422Z,44.47
2023-03-16T08:38:32.398Z,42.88
2023-03-16T08:41:17.160Z,41.36
2023-03-16T08:44:03.520Z,42.20
2023-03-16T08:46:45.036Z,39.73
2023-03-16T08:49:34.287Z,41.57
2023-03-16T08:52:23.785Z,39.60
2023-03-16T08:55:03.797Z,40.98
2023-03-16T08:57:47.179Z,39.56
2023-03-16T09:00:28.460Z,39.43
2023-03-16T09:03:07.331Z,40.79
2023-03-16T09:05:45.252Z,40.16
2023-03-16T09:08:31.350Z,40.43
2023-03-16T09:11:21.512Z,41.79
2023-03-16T09:14:02.828Z,41.18
2023-03-16T09:16:43.209Z,39.88
2023-03-16T09:19:20.085Z,42.18
2023-03-16T09:22:08.601Z,40.99
2023-03-16T09:24:49.470Z,39.96
2023-03-16T09:30:29.812Z,39.15
2023-03-16T09:33:10.381Z,39.36
2023-03-16T09:35:58.146Z,40.66
2023-03-16T09:38:37.480Z,38.78
2023-03-16T09:41:30.924Z,39.19
2023-03-16T09:44:39.149Z,39.04
2023-03-16T09:47:16.789Z,38.98
2023-03-16T09:50:09.910Z,40.49
2023-03-16T09:53:05.360Z,38.48
2023-03-16T09:55:57.454Z,40.40
2023-03-16T09:58:47.182Z,40.60
2023-03-16T10:01:47.144Z,38.41
2023-03-16T10:04:45.172Z,37.17
2023-03-16T10:07:48.694Z,37.86
2023-03-16T10:10:53.553Z,39.04
2023-03-16T10:14:14.261Z,35.74
2023-03-16T10:17:01.090Z,37.34
2023-03-16T10:19:49.859Z,36.64
2023-03-16T10:22:41.114Z,36.59
2023-03-16T10:25:52.333Z,36.87
2023-03-16T10:28:40.996Z,35.23
2023-03-16T10:31:31.459Z,33.60
2023-03-16T10:34:15.618Z,34.92
2023-03-16T10:36:58.452Z,33.77
2023-03-16T10:39:44.278Z,33.53
2023-03-16T10:42:27.548Z,33.81
2023-03-16T10:45:20.069Z,33.06
2023-03-16T10:48:10.335Z,33.38
2023-03-16T10:50:54.619Z,33.36
2023-03-16T10:53:42.372Z,30.80
2023-03-16T10:56:38.489Z,32.16
2023-03-16T10:59:49.059Z,31.45
2023-03-16T11:02:30.525Z,30.03
2023-03-16T11:05:28.285Z,29.61
2023-03-16T11:08:18.893Z,30.75
2023-03-16T11:11:02.818Z,29.92
2023-03-16T11:13:54.290Z,28.50
2023-03-16T11:16:52.372Z,29.36
2023-03-16T11:19:59.688Z,28.82
2023-03-16T11:22:42.243Z,28.49
2023-03-16T11:25:30.790Z,28.70
2023-03-16T11:28:28.231Z,28.61
2023-03-16T11:31:35.145Z,28.87
2023-03-16T11:34:18.891Z,28.22
2023-03-16T11:37:03.219Z,28.64
2023-03-16T11:40:06.562Z,29.28
2023-03-16T11:42:47.071Z,27.57
2023-03-16T11:45:45.755Z,26.80
2023-03-16T11:48:36.792Z,27.35
2023-03-16T11:51:44.619Z,28.39
2023-03-16T11:54:59.956Z,27.35
2023-03-16T11:58:04.613Z,26.58
2023-03-16T12:00:56.491Z,27.20
2023-03-16T12:04:18.470Z,26.51
2023-03-16T12:07:13.199Z,27.63
2023-03-16T12:10:26.834Z,26.06
2023-03-16T12:13:33.824Z,27.18
2023-03-16T12:16:25.170Z,28.53
2023-03-16T12:19:10.796Z,24.65
2023-03-16T12:21:53.699Z,25.13
2023-03-16T12:24:37.351Z,27.50
2023-03-16T12:27:39.163Z,26.62
2023-03-16T12:30:37.200Z,25.94
2023-03-16T12:33:47.526Z,25.69
2023-03-16T12:37:02.832Z,26.21
2023-03-16T12:39:41.268Z,26.51
2023-03-16T12:42:49.993Z,28.97
2023-03-16T12:45:46.248Z,26.62
2023-03-16T12:48:46.290Z,25.24
2023-03-16T12:51:21.462Z,25.76
2023-03-16T12:54:03.286Z,25.92
2023-03-16T12:56:50.651Z,26.39
2023-03-16T12:59:46.892Z,25.70
2023-03-16T13:02:45.564Z,27.03
2023-03-16T13:05:51.038Z,26.06
2023-03-16T13:08:26.101Z,25.42
2023-03-16T13:11:30.264Z,26.47
2023-03-16T13:14:33.810Z,26.58
2023-03-16T13:17:25.129Z,26.26
2023-03-16T13:20:42.743Z,26.44
2023-03-16T13:23:31.623Z,26.69
2023-03-16T13:26:22.009Z,25.15
2023-03-16T13:29:08.039Z,25.49
2023-03-16T13:31:55.283Z,26.24
2023-03-16T13:34:51.814Z,24.89
2023-03-16T13:37:42.687Z,24.92
2023-03-16T13:40:38.039Z,26.10
2023-03-16T13:43:22.195Z,25.16
2023-03-16T13:46:05.395Z,26.28
2023-03-16T13:48:49.093Z,25.00
2023-03-16T13:51:36.079Z,25.32
2023-03-16T13:54:37.832Z,24.72
2023-03-16T13:57:20.633Z,24.12
2023-03-16T14:00:06.830Z,23.96
2023-03-16T14:02:55.708Z,24.67
2023-03-16T14:05:40.702Z,24.46
2023-03-16T14:08:29.851Z,24.15
2023-03-16T14:11:09.042Z,23.86
2023-03-16T14:14:00.244Z,23.93
2023-03-16T14:16:40.441Z,24.56
2023-03-16T14:19:38.227Z,23.87
2023-03-16T14:22:19.028Z,23.83
2023-03-16T14:25:05.814Z,24.35
2023-03-16T14:28:05.692Z,24.45
2023-03-16T14:30:55.222Z,25.21
2023-03-16T14:33:42.119Z,25.91
2023-03-16T14:36:22.115Z,24.85
2023-03-16T14:39:09.636Z,24.92
2023-03-16T14:41:49.922Z,25.54
2023-03-16T14:44:40.796Z,25.94
2023-03-16T14:47:28.196Z,24.81
2023-03-16T14:50:26.165Z,25.79
2023-03-16T14:53:07.758Z,25.80
2023-03-16T14:55:48.498Z,25.76
2023-03-16T14:58:26.172Z,24.58
2023-03-16T15:01:14.990Z,25.59
2023-03-16T15:03:53.546Z,24.41
2023-03-16T15:06:32.908Z,25.06
2023-03-16T15:09:31.639Z,25.38
2023-03-16T15:12:26.705Z,24.60
2023-03-16T15:15:17.722Z,24.67
2023-03-16T15:17:58.060Z,25.21
2023-03-16T15:20:50.062Z,25.67
2023-03-16T15:23:34.369Z,24.43
2023-03-16T15:26:21.945Z,24.49
2023-03-16T15:29:07.530Z,24.28
2023-03-16T15:31:47.979Z,24.77
2023-03-16T15:34:30.639Z,24.69
2023-03-16T15:37:23.462Z,23.06
2023-03-16T15:40:04.834Z,22.75
2023-03-16T15:42:47.983Z,23.63
2023-03-16T15:45:31.506Z,22.60
2023-03-16T15:48:23.551Z,22.92
2023-03-16T15:51:16.229Z,22.39
2023-03-16T15:53:59.565Z,20.87
2023-03-16T15:56:50.996Z,21.25
2023-03-16T15:59:38.167Z,21.18
2023-03-16T16:02:35.186Z,20.98
2023-03-16T16:05:20.922Z,20.89
2023-03-16T16:08:09.162Z,20.92
2023-03-16T16:11:12.159Z,21.97
2023-03-16T16:13:49.404Z,22.28
2023-03-16T16:16:37.371Z,23.15
2023-03-16T16:19:27.841Z,23.48
2023-03-16T16:22:13.190Z,24.43
2023-03-16T16:24:56.990Z,25.23
2023-03-16T16:27:32.350Z,26.32
2023-03-16T16:30:14.492Z,26.22
2023-03-16T16:32:50.271Z,26.85
2023-03-16T16:35:31.961Z,27.32
2023-03-16T16:38:16.142Z,26.90
2023-03-16T16:40:58.593Z,27.22
2023-03-16T16:43:47.753Z,27.86
2023-03-16T16:46:29.364Z,28.39
2023-03-16T16:49:23.175Z,28.38
2023-03-16T16:52:01.800Z,29.07
2023-03-16T16:54:37.019Z,29.31
2023-03-16T16:57:25.208Z,29.98
2023-03-16T17:00:10.138Z,30.45
2023-03-16T17:02:57.563Z,31.99
2023-03-16T17:05:35.484Z,32.62
2023-03-16T17:08:25.122Z,33.58
2023-03-16T17:11:07.210Z,34.68
2023-03-16T17:13:48.338Z,35.90
2023-03-16T17:16:33.361Z,36.39
2023-03-16T17:19:23.346Z,38.60
2023-03-16T17:22:02.542Z,39.97
2023-03-16T17:24:46.104Z,39.48
2023-03-16T17:27:29.639Z,39.98
2023-03-16T17:30:08.318Z,40.73
2023-03-16T17:32:46.849Z,40.56
2023-03-16T17:35:30.788Z,42.00
2023-03-16T17:38:18.250Z,42.86
2023-03-16T17:41:00.947Z,41.90
2023-03-16T17:43:41.318Z,42.75
2023-03-16T17:46:25.577Z,42.70
2023-03-16T17:49:03.425Z,42.83
2023-03-16T17:51:39.828Z,43.94
2023-03-16T17:54:15.877Z,43.71
2023-03-16T17:56:58.445Z,44.89
2023-03-16T17:59:35.619Z,45.46
2023-03-16T18:02:35.184Z,46.96
2023-03-16T18:05:29.620Z,47.28
2023-03-16T18:08:30.593Z,47.89
2023-03-16T18:11:20.632Z,48.60
2023-03-16T18:14:08.573Z,49.23
2023-03-16T18:16:52.406Z,50.07
2023-03-16T18:19:40.044Z,50.41
2023-03-16T18:22:35.689Z,50.81
2023-03-16T18:25:44.806Z,52.00
2023-03-16T18:28:28.173Z,50.69
2023-03-16T18:31:20.396Z,50.44
2023-03-16T18:33:59.824Z,51.24
2023-03-16T18:36:45.891Z,51.71
2023-03-16T18:39:27.972Z,52.28
2023-03-16T18:42:09.261Z,53.04
2023-03-16T18:44:50.220Z,54.18
2023-03-16T18:47:32.897Z,56.07
2023-03-16T18:50:31.178Z,56.19
2023-03-16T18:53:11.815Z,57.12
2023-03-16T18:55:52.038Z,59.80
2023-03-16T18:58:41.584Z,54.85
2023-03-16T19:01:29.652Z,53.14
2023-03-16T19:04:10.826Z,51.66
2023-03-16T19:06:54.154Z,51.46
2023-03-16T19:09:36.068Z,51.11
2023-03-16T19:12:19.404Z,51.35
2023-03-16T19:15:15.862Z,51.68
2023-03-16T19:17:50.139Z,50.74
2023-03-16T19:20:40.674Z,50.97
2023-03-16T19:23:33.786Z,51.47
2023-03-16T19:26:08.263Z,51.70
2023-03-16T19:28:50.151Z,51.31
2023-03-16T19:31:41.879Z,51.45
2023-03-16T19:34:27.364Z,51.41
2023-03-16T19:37:15.826Z,51.59
2023-03-16T19:39:59.136Z,52.09
2023-03-16T19:42:42.327Z,52.78
2023-03-16T19:45:29.899Z,53.44
2023-03-16T19:48:24.185Z,54.02
2023-03-16T19:51:11.153Z,54.69
2023-03-16T19:53:56.295Z,55.27
2023-03-16T19:56:36.866Z,55.74
2023-03-16T19:59:35.640Z,55.50
2023-03-16T20:02:38.878Z,57.89
2023-03-16T20:05:18.588Z,62.17
2023-03-16T20:08:08.759Z,65.44
2023-03-16T20:10:43.491Z,69.86
2023-03-16T20:13:24.541Z,78.30
2023-03-16T20:16:00.972Z,79.70
2023-03-16T20:18:35.839Z,78.58
2023-03-16T20:21:21.320Z,74.29
2023-03-16T20:24:11.637Z,69.52
2023-03-16T20:26:47.910Z,67.30
2023-03-16T20:29:42.308Z,69.78
2023-03-16T20:32:32.948Z,70.36
2023-03-16T20:35:23.170Z,67.66
2023-03-16T20:37:58.264Z,67.16
2023-03-16T20:40:49.482Z,67.35
2023-03-16T20:43:44.324Z,67.89
2023-03-16T20:46:27.750Z,67.37
2023-03-16T20:49:02.441Z,68.08
2023-03-16T20:51:51.116Z,69.32
2023-03-16T20:54:37.494Z,70.68
2023-03-16T20:57:24.102Z,71.81
2023-03-16T21:00:02.604Z,71.68
2023-03-16T21:02:41.450Z,72.38
2023-03-16T21:05:30.020Z,73.05
2023-03-16T21:08:08.965Z,74.15
2023-03-16T21:10:50.925Z,76.12
2023-03-16T21:13:33.166Z,76.07
2023-03-16T21:16:08.910Z,77.82
2023-03-16T21:18:49.830Z,79.02
2023-03-16T21:21:27.544Z,78.68
2023-03-16T21:24:08.165Z,78.66
2023-03-16T21:26:55.119Z,77.81
2023-03-16T21:29:30.254Z,78.07
2023-03-16T21:35:18.673Z,82.56
2023-03-16T21:37:59.617Z,81.44
2023-03-16T21:40:39.564Z,81.82
2023-03-16T21:43:17.708Z,80.84
2023-03-16T21:46:04.123Z,81.18
2023-03-16T21:48:46.947Z,81.01
2023-03-16T21:51:29.441Z,79.85
2023-03-16T21:54:17.838Z,80.29
2023-03-16T21:56:59.790Z,80.83
2023-03-16T21:59:54.447Z,81.75
2023-03-16T22:02:34.853Z,82.37
2023-03-16T22:05:30.621Z,82.92
2023-03-16T22:08:29.069Z,84.20
2023-03-16T22:11:08.601Z,90.79
2023-03-16T22:14:03.043Z,89.73
2023-03-16T22:16:47.810Z,89.13
2023-03-16T22:19:38.784Z,88.21
2023-03-16T22:22:23.050Z,87.29
2023-03-16T22:25:05.672Z,88.70
2023-03-16T22:27:48.266Z,89.17
2023-03-16T22:30:34.250Z,90.31
2023-03-16T22:33:21.803Z,89.37
2023-03-16T22:36:16.647Z,88.45
2023-03-16T22:39:00.094Z,88.55
2023-03-16T22:41:44.147Z,88.59
2023-03-16T22:44:37.247Z,88.97
2023-03-16T22:47:37.107Z,88.90
2023-03-16T22:50:25.146Z,90.35
2023-03-16T22:53:16.540Z,91.83
2023-03-16T22:56:02.336Z,92.06
2023-03-16T22:59:00.329Z,93.52
2023-03-16T23:01:52.473Z,95.68
2023-03-16T23:04:30.522Z,95.52
2023-03-16T23:07:12.953Z,96.05
2023-03-16T23:09:56.931Z,97.31
2023-03-16T23:12:40.348Z,98.19
2023-03-16T23:15:32.691Z,98.04
2023-03-16T23:18:18.149Z,97.17
2023-03-16T23:20:54.400Z,97.47
2023-03-16T23:23:35.439Z,97.58
2023-03-16T23:26:23.340Z,97.18
2023-03-16T23:29:05.617Z,97.15
2023-03-16T23:31:57.013Z,95.97
2023-03-16T23:34:46.470Z,96.38
2023-03-16T23:37:30.742Z,96.14
2023-03-16T23:40:12.096Z,97.82
2023-03-16T23:42:52.186Z,98.47
2023-03-16T23:45:40.874Z,98.66
2023-03-16T23:48:25.698Z,99.42
2023-03-16T23:51:07.389Z,99.32
2023-03-16T23:53:54.733Z,99.45
2023-03-16T23:56:41.590Z,100.00
2023-03-16T23:59:22.258Z,100.00
